sensor_id;sensor_type;location;lat;lon;timestamp;temperature;humidity
70421;SHT31;57848;51.938;15.520;2024-03-25T00:00:42;4.86;95.04
70421;SHT31;57848;51.938;15.520;2024-03-25T00:03:07;4.88;95.11
70421;SHT31;57848;51.938;15.520;2024-03-25T00:05:32;4.87;94.94
70421;SHT31;57848;51.938;15.520;2024-03-25T00:07:58;4.86;95.68
70421;SHT31;57848;51.938;15.520;2024-03-25T00:10:24;4.94;95.59
70421;SHT31;57848;51.938;15.520;2024-03-25T00:12:49;4.93;95.12
70421;SHT31;57848;51.938;15.520;2024-03-25T00:15:19;4.91;95.35
70421;SHT31;57848;51.938;15.520;2024-03-25T00:17:45;4.95;95.35
70421;SHT31;57848;51.938;15.520;2024-03-25T00:20:12;4.94;95.09
70421;SHT31;57848;51.938;15.520;2024-03-25T00:22:38;4.94;95.06
70421;SHT31;57848;51.938;15.520;2024-03-25T00:25:04;4.94;95.33
70421;SHT31;57848;51.938;15.520;2024-03-25T00:27:29;4.94;95.24
70421;SHT31;57848;51.938;15.520;2024-03-25T00:29:55;5.00;95.28
70421;SHT31;57848;51.938;15.520;2024-03-25T00:32:20;4.94;95.24
70421;SHT31;57848;51.938;15.520;2024-03-25T00:34:46;5.00;95.32
70421;SHT31;57848;51.938;15.520;2024-03-25T00:37:12;5.05;95.20
70421;SHT31;57848;51.938;15.520;2024-03-25T00:39:37;5.04;95.32
70421;SHT31;57848;51.938;15.520;2024-03-25T00:42:03;4.95;95.76
70421;SHT31;57848;51.938;15.520;2024-03-25T00:44:28;5.03;95.08
70421;SHT31;57848;51.938;15.520;2024-03-25T00:46:54;5.03;95.24
70421;SHT31;57848;51.938;15.520;2024-03-25T00:49:19;5.03;95.32
70421;SHT31;57848;51.938;15.520;2024-03-25T00:51:44;5.03;95.45
70421;SHT31;57848;51.938;15.520;2024-03-25T00:54:10;5.03;95.11
70421;SHT31;57848;51.938;15.520;2024-03-25T00:56:35;5.04;94.96
70421;SHT31;57848;51.938;15.520;2024-03-25T00:59:01;5.10;95.16
70421;SHT31;57848;51.938;15.520;2024-03-25T01:01:34;5.04;95.24
70421;SHT31;57848;51.938;15.520;2024-03-25T01:04:01;5.08;94.92
70421;SHT31;57848;51.938;15.520;2024-03-25T01:06:26;5.11;95.15
70421;SHT31;57848;51.938;15.520;2024-03-25T01:08:52;5.17;95.24
70421;SHT31;57848;51.938;15.520;2024-03-25T01:11:17;5.15;95.16
70421;SHT31;57848;51.938;15.520;2024-03-25T01:13:42;5.18;94.97
70421;SHT31;57848;51.938;15.520;2024-03-25T01:16:08;5.14;95.27
70421;SHT31;57848;51.938;15.520;2024-03-25T01:18:34;5.15;95.42
70421;SHT31;57848;51.938;15.520;2024-03-25T01:20:59;5.13;94.99
70421;SHT31;57848;51.938;15.520;2024-03-25T01:23:25;5.20;95.34
70421;SHT31;57848;51.938;15.520;2024-03-25T01:25:50;5.23;95.47
70421;SHT31;57848;51.938;15.520;2024-03-25T01:28:15;5.21;95.37
70421;SHT31;57848;51.938;15.520;2024-03-25T01:30:41;5.23;95.46
70421;SHT31;57848;51.938;15.520;2024-03-25T01:33:06;5.35;95.28
70421;SHT31;57848;51.938;15.520;2024-03-25T01:35:31;5.23;95.29
70421;SHT31;57848;51.938;15.520;2024-03-25T01:37:57;5.28;95.91
70421;SHT31;57848;51.938;15.520;2024-03-25T01:40:23;5.25;95.15
70421;SHT31;57848;51.938;15.520;2024-03-25T01:43:03;5.32;95.57
70421;SHT31;57848;51.938;15.520;2024-03-25T01:45:30;5.32;95.62
70421;SHT31;57848;51.938;15.520;2024-03-25T01:47:57;5.32;95.39
70421;SHT31;57848;51.938;15.520;2024-03-25T01:50:23;5.28;95.53
70421;SHT31;57848;51.938;15.520;2024-03-25T01:52:49;5.32;95.77
70421;SHT31;57848;51.938;15.520;2024-03-25T01:55:20;5.30;95.69
70421;SHT31;57848;51.938;15.520;2024-03-25T01:57:47;5.32;95.73
70421;SHT31;57848;51.938;15.520;2024-03-25T02:00:13;5.30;94.92
70421;SHT31;57848;51.938;15.520;2024-03-25T02:02:49;5.30;95.72
70421;SHT31;57848;51.938;15.520;2024-03-25T02:05:16;5.30;95.13
70421;SHT31;57848;51.938;15.520;2024-03-25T02:07:43;5.32;95.40
70421;SHT31;57848;51.938;15.520;2024-03-25T02:10:09;5.32;95.53
70421;SHT31;57848;51.938;15.520;2024-03-25T02:12:44;5.36;95.48
70421;SHT31;57848;51.938;15.520;2024-03-25T02:15:11;5.38;94.83
70421;SHT31;57848;51.938;15.520;2024-03-25T02:17:37;5.27;94.67
70421;SHT31;57848;51.938;15.520;2024-03-25T02:20:03;5.34;95.03
70421;SHT31;57848;51.938;15.520;2024-03-25T02:22:31;5.34;94.84
70421;SHT31;57848;51.938;15.520;2024-03-25T02:24:57;5.31;95.00
70421;SHT31;57848;51.938;15.520;2024-03-25T02:27:24;5.30;94.59
70421;SHT31;57848;51.938;15.520;2024-03-25T02:29:50;5.34;94.43
70421;SHT31;57848;51.938;15.520;2024-03-25T02:32:15;5.35;94.85
70421;SHT31;57848;51.938;15.520;2024-03-25T02:34:43;5.36;95.17
70421;SHT31;57848;51.938;15.520;2024-03-25T02:37:10;5.42;94.85
70421;SHT31;57848;51.938;15.520;2024-03-25T02:39:36;5.42;94.53
70421;SHT31;57848;51.938;15.520;2024-03-25T02:42:02;5.30;94.13
70421;SHT31;57848;51.938;15.520;2024-03-25T02:44:27;5.25;94.29
70421;SHT31;57848;51.938;15.520;2024-03-25T02:46:53;5.30;94.54
70421;SHT31;57848;51.938;15.520;2024-03-25T02:49:19;5.27;94.63
70421;SHT31;57848;51.938;15.520;2024-03-25T02:51:45;5.27;94.15
70421;SHT31;57848;51.938;15.520;2024-03-25T02:54:11;5.25;94.34
70421;SHT31;57848;51.938;15.520;2024-03-25T02:56:36;5.27;94.21
70421;SHT31;57848;51.938;15.520;2024-03-25T02:59:02;5.23;94.39
70421;SHT31;57848;51.938;15.520;2024-03-25T03:01:27;5.23;94.57
70421;SHT31;57848;51.938;15.520;2024-03-25T03:03:52;5.18;94.19
70421;SHT31;57848;51.938;15.520;2024-03-25T03:06:18;5.18;94.34
70421;SHT31;57848;51.938;15.520;2024-03-25T03:08:44;5.17;94.49
70421;SHT31;57848;51.938;15.520;2024-03-25T03:11:09;5.13;94.16
70421;SHT31;57848;51.938;15.520;2024-03-25T03:13:35;5.11;94.67
70421;SHT31;57848;51.938;15.520;2024-03-25T03:16:00;5.11;94.31
70421;SHT31;57848;51.938;15.520;2024-03-25T03:18:25;5.13;94.05
70421;SHT31;57848;51.938;15.520;2024-03-25T03:20:50;5.03;94.43
70421;SHT31;57848;51.938;15.520;2024-03-25T03:23:16;5.08;94.63
70421;SHT31;57848;51.938;15.520;2024-03-25T03:25:42;5.00;94.62
70421;SHT31;57848;51.938;15.520;2024-03-25T03:28:08;4.98;94.63
70421;SHT31;57848;51.938;15.520;2024-03-25T03:30:33;4.97;94.60
70421;SHT31;57848;51.938;15.520;2024-03-25T03:32:58;5.01;94.50
70421;SHT31;57848;51.938;15.520;2024-03-25T03:35:24;5.01;94.49
70421;SHT31;57848;51.938;15.520;2024-03-25T03:37:49;5.03;94.77
70421;SHT31;57848;51.938;15.520;2024-03-25T03:40:14;5.03;94.81
70421;SHT31;57848;51.938;15.520;2024-03-25T03:42:40;5.05;94.60
70421;SHT31;57848;51.938;15.520;2024-03-25T03:45:06;4.98;94.65
70421;SHT31;57848;51.938;15.520;2024-03-25T03:47:32;5.04;94.60
70421;SHT31;57848;51.938;15.520;2024-03-25T03:49:57;4.97;94.57
70421;SHT31;57848;51.938;15.520;2024-03-25T03:52:23;5.05;94.56
70421;SHT31;57848;51.938;15.520;2024-03-25T03:54:48;4.93;94.64
70421;SHT31;57848;51.938;15.520;2024-03-25T03:57:13;4.91;94.56
70421;SHT31;57848;51.938;15.520;2024-03-25T03:59:39;4.93;94.52
70421;SHT31;57848;51.938;15.520;2024-03-25T04:02:04;4.97;94.47
70421;SHT31;57848;51.938;15.520;2024-03-25T04:04:29;5.01;94.29
70421;SHT31;57848;51.938;15.520;2024-03-25T04:06:55;5.03;94.25
70421;SHT31;57848;51.938;15.520;2024-03-25T04:09:21;5.01;94.07
70421;SHT31;57848;51.938;15.520;2024-03-25T04:11:48;4.94;94.03
70421;SHT31;57848;51.938;15.520;2024-03-25T04:14:14;4.91;94.11
70421;SHT31;57848;51.938;15.520;2024-03-25T04:16:39;4.94;94.23
70421;SHT31;57848;51.938;15.520;2024-03-25T04:19:05;4.91;94.37
70421;SHT31;57848;51.938;15.520;2024-03-25T04:21:30;4.94;94.55
70421;SHT31;57848;51.938;15.520;2024-03-25T04:23:55;4.94;94.40
70421;SHT31;57848;51.938;15.520;2024-03-25T04:26:20;4.88;94.21
70421;SHT31;57848;51.938;15.520;2024-03-25T04:28:46;4.94;94.71
70421;SHT31;57848;51.938;15.520;2024-03-25T04:31:11;5.00;94.20
70421;SHT31;57848;51.938;15.520;2024-03-25T04:33:37;4.91;94.03
70421;SHT31;57848;51.938;15.520;2024-03-25T04:36:02;4.83;94.28
70421;SHT31;57848;51.938;15.520;2024-03-25T04:38:29;4.91;94.74
70421;SHT31;57848;51.938;15.520;2024-03-25T04:40:56;4.94;94.53
70421;SHT31;57848;51.938;15.520;2024-03-25T04:43:21;4.91;94.69
70421;SHT31;57848;51.938;15.520;2024-03-25T04:45:46;4.97;94.22
70421;SHT31;57848;51.938;15.520;2024-03-25T04:48:12;5.01;94.35
70421;SHT31;57848;51.938;15.520;2024-03-25T04:50:37;5.01;94.41
70421;SHT31;57848;51.938;15.520;2024-03-25T04:53:02;4.91;94.70
70421;SHT31;57848;51.938;15.520;2024-03-25T04:55:28;4.93;94.88
70421;SHT31;57848;51.938;15.520;2024-03-25T04:57:53;4.95;95.09
70421;SHT31;57848;51.938;15.520;2024-03-25T05:00:19;4.94;95.00
70421;SHT31;57848;51.938;15.520;2024-03-25T05:02:44;5.01;94.99
70421;SHT31;57848;51.938;15.520;2024-03-25T05:05:10;4.91;94.96
70421;SHT31;57848;51.938;15.520;2024-03-25T05:07:35;4.97;95.24
70421;SHT31;57848;51.938;15.520;2024-03-25T05:10:03;4.93;95.02
70421;SHT31;57848;51.938;15.520;2024-03-25T05:12:28;5.01;95.01
70421;SHT31;57848;51.938;15.520;2024-03-25T05:14:58;4.98;95.32
70421;SHT31;57848;51.938;15.520;2024-03-25T05:17:23;5.03;95.09
70421;SHT31;57848;51.938;15.520;2024-03-25T05:19:48;4.98;95.27
70421;SHT31;57848;51.938;15.520;2024-03-25T05:22:14;5.01;95.21
70421;SHT31;57848;51.938;15.520;2024-03-25T05:24:39;5.00;95.03
70421;SHT31;57848;51.938;15.520;2024-03-25T05:27:05;4.98;95.26
70421;SHT31;57848;51.938;15.520;2024-03-25T05:29:30;5.05;95.30
70421;SHT31;57848;51.938;15.520;2024-03-25T05:32:00;5.03;95.04
70421;SHT31;57848;51.938;15.520;2024-03-25T05:34:26;5.03;95.04
70421;SHT31;57848;51.938;15.520;2024-03-25T05:36:52;5.07;95.24
70421;SHT31;57848;51.938;15.520;2024-03-25T05:39:17;5.11;94.65
70421;SHT31;57848;51.938;15.520;2024-03-25T05:41:43;5.15;94.60
70421;SHT31;57848;51.938;15.520;2024-03-25T05:44:08;5.13;94.71
70421;SHT31;57848;51.938;15.520;2024-03-25T05:46:34;5.10;94.70
70421;SHT31;57848;51.938;15.520;2024-03-25T05:49:05;5.13;94.81
70421;SHT31;57848;51.938;15.520;2024-03-25T05:51:31;5.11;94.79
70421;SHT31;57848;51.938;15.520;2024-03-25T05:54:00;5.10;94.69
70421;SHT31;57848;51.938;15.520;2024-03-25T05:56:26;5.13;94.83
70421;SHT31;57848;51.938;15.520;2024-03-25T05:58:59;5.18;94.40
70421;SHT31;57848;51.938;15.520;2024-03-25T06:01:24;5.11;94.68
70421;SHT31;57848;51.938;15.520;2024-03-25T06:03:49;5.08;94.65
70421;SHT31;57848;51.938;15.520;2024-03-25T06:06:15;5.11;94.87
70421;SHT31;57848;51.938;15.520;2024-03-25T06:08:40;5.11;94.34
70421;SHT31;57848;51.938;15.520;2024-03-25T06:11:05;5.14;94.61
70421;SHT31;57848;51.938;15.520;2024-03-25T06:13:31;5.13;94.84
70421;SHT31;57848;51.938;15.520;2024-03-25T06:15:56;5.17;94.83
70421;SHT31;57848;51.938;15.520;2024-03-25T06:18:22;5.13;94.09
70421;SHT31;57848;51.938;15.520;2024-03-25T06:20:48;5.14;94.05
70421;SHT31;57848;51.938;15.520;2024-03-25T06:23:28;5.21;94.38
70421;SHT31;57848;51.938;15.520;2024-03-25T06:25:55;5.25;93.91
70421;SHT31;57848;51.938;15.520;2024-03-25T06:28:21;5.24;93.81
70421;SHT31;57848;51.938;15.520;2024-03-25T06:30:47;5.30;92.88
70421;SHT31;57848;51.938;15.520;2024-03-25T06:33:31;5.39;93.41
70421;SHT31;57848;51.938;15.520;2024-03-25T06:36:16;5.44;93.18
70421;SHT31;57848;51.938;15.520;2024-03-25T06:38:42;5.48;93.16
70421;SHT31;57848;51.938;15.520;2024-03-25T06:41:08;5.62;93.07
70421;SHT31;57848;51.938;15.520;2024-03-25T06:43:34;5.60;92.88
70421;SHT31;57848;51.938;15.520;2024-03-25T06:45:59;5.63;92.39
70421;SHT31;57848;51.938;15.520;2024-03-25T06:48:24;5.67;92.16
70421;SHT31;57848;51.938;15.520;2024-03-25T06:50:56;5.63;92.58
70421;SHT31;57848;51.938;15.520;2024-03-25T06:53:22;5.51;91.72
70421;SHT31;57848;51.938;15.520;2024-03-25T06:55:56;5.58;92.43
70421;SHT31;57848;51.938;15.520;2024-03-25T06:58:24;5.56;92.28
70421;SHT31;57848;51.938;15.520;2024-03-25T07:00:50;5.60;92.16
70421;SHT31;57848;51.938;15.520;2024-03-25T07:03:16;5.63;92.47
70421;SHT31;57848;51.938;15.520;2024-03-25T07:05:44;5.69;92.86
70421;SHT31;57848;51.938;15.520;2024-03-25T07:08:10;5.66;92.75
70421;SHT31;57848;51.938;15.520;2024-03-25T07:10:36;5.63;92.43
70421;SHT31;57848;51.938;15.520;2024-03-25T07:13:01;5.62;92.24
70421;SHT31;57848;51.938;15.520;2024-03-25T07:15:26;5.56;93.04
70421;SHT31;57848;51.938;15.520;2024-03-25T07:17:52;5.55;93.40
70421;SHT31;57848;51.938;15.520;2024-03-25T07:20:17;5.59;93.24
70421;SHT31;57848;51.938;15.520;2024-03-25T07:22:42;5.70;93.36
70421;SHT31;57848;51.938;15.520;2024-03-25T07:25:08;5.72;93.01
70421;SHT31;57848;51.938;15.520;2024-03-25T07:27:34;5.70;93.20
70421;SHT31;57848;51.938;15.520;2024-03-25T07:30:00;5.72;93.02
70421;SHT31;57848;51.938;15.520;2024-03-25T07:32:25;5.79;93.07
70421;SHT31;57848;51.938;15.520;2024-03-25T07:34:50;5.66;93.45
70421;SHT31;57848;51.938;15.520;2024-03-25T07:37:15;5.79;93.64
70421;SHT31;57848;51.938;15.520;2024-03-25T07:39:42;5.86;93.07
70421;SHT31;57848;51.938;15.520;2024-03-25T07:42:07;5.86;93.49
70421;SHT31;57848;51.938;15.520;2024-03-25T07:44:33;5.97;93.02
70421;SHT31;57848;51.938;15.520;2024-03-25T07:46:58;5.99;93.21
70421;SHT31;57848;51.938;15.520;2024-03-25T07:49:23;6.03;93.09
70421;SHT31;57848;51.938;15.520;2024-03-25T07:51:49;6.09;92.76
70421;SHT31;57848;51.938;15.520;2024-03-25T07:54:14;6.04;93.95
70421;SHT31;57848;51.938;15.520;2024-03-25T07:56:42;6.13;92.97
70421;SHT31;57848;51.938;15.520;2024-03-25T07:59:07;6.07;92.43
70421;SHT31;57848;51.938;15.520;2024-03-25T08:01:32;6.09;92.75
70421;SHT31;57848;51.938;15.520;2024-03-25T08:03:58;6.18;93.10
70421;SHT31;57848;51.938;15.520;2024-03-25T08:06:25;6.17;93.02
70421;SHT31;57848;51.938;15.520;2024-03-25T08:08:50;6.09;92.47
70421;SHT31;57848;51.938;15.520;2024-03-25T08:11:15;6.17;92.88
70421;SHT31;57848;51.938;15.520;2024-03-25T08:13:41;6.16;92.34
70421;SHT31;57848;51.938;15.520;2024-03-25T08:16:06;6.13;92.84
70421;SHT31;57848;51.938;15.520;2024-03-25T08:18:31;6.14;93.18
70421;SHT31;57848;51.938;15.520;2024-03-25T08:20:57;6.23;93.51
70421;SHT31;57848;51.938;15.520;2024-03-25T08:23:22;6.20;93.12
70421;SHT31;57848;51.938;15.520;2024-03-25T08:25:47;6.17;93.30
70421;SHT31;57848;51.938;15.520;2024-03-25T08:28:13;6.20;92.81
70421;SHT31;57848;51.938;15.520;2024-03-25T08:30:38;6.18;92.96
70421;SHT31;57848;51.938;15.520;2024-03-25T08:33:03;6.20;93.11
70421;SHT31;57848;51.938;15.520;2024-03-25T08:35:29;6.23;92.53
70421;SHT31;57848;51.938;15.520;2024-03-25T08:37:54;6.27;92.94
70421;SHT31;57848;51.938;15.520;2024-03-25T08:40:19;6.25;92.64
70421;SHT31;57848;51.938;15.520;2024-03-25T08:42:45;6.24;92.92
70421;SHT31;57848;51.938;15.520;2024-03-25T08:45:10;6.27;93.51
70421;SHT31;57848;51.938;15.520;2024-03-25T08:47:35;6.24;93.00
70421;SHT31;57848;51.938;15.520;2024-03-25T08:50:03;6.21;93.05
70421;SHT31;57848;51.938;15.520;2024-03-25T08:52:28;6.24;92.95
70421;SHT31;57848;51.938;15.520;2024-03-25T08:54:54;6.17;92.76
70421;SHT31;57848;51.938;15.520;2024-03-25T08:57:19;6.09;93.30
70421;SHT31;57848;51.938;15.520;2024-03-25T08:59:44;6.10;93.37
70421;SHT31;57848;51.938;15.520;2024-03-25T09:02:10;6.07;93.48
70421;SHT31;57848;51.938;15.520;2024-03-25T09:04:35;6.07;93.66
70421;SHT31;57848;51.938;15.520;2024-03-25T09:07:00;6.16;93.38
70421;SHT31;57848;51.938;15.520;2024-03-25T09:09:26;6.11;93.77
70421;SHT31;57848;51.938;15.520;2024-03-25T09:12:09;6.14;93.29
70421;SHT31;57848;51.938;15.520;2024-03-25T09:14:35;6.20;93.39
70421;SHT31;57848;51.938;15.520;2024-03-25T09:17:02;6.21;93.11
70421;SHT31;57848;51.938;15.520;2024-03-25T09:19:27;6.30;93.32
70421;SHT31;57848;51.938;15.520;2024-03-25T09:21:53;6.23;92.72
70421;SHT31;57848;51.938;15.520;2024-03-25T09:24:18;6.20;92.89
70421;SHT31;57848;51.938;15.520;2024-03-25T09:26:44;6.16;92.92
70421;SHT31;57848;51.938;15.520;2024-03-25T09:29:11;6.23;93.19
70421;SHT31;57848;51.938;15.520;2024-03-25T09:31:37;6.23;92.72
70421;SHT31;57848;51.938;15.520;2024-03-25T09:34:02;6.20;93.10
70421;SHT31;57848;51.938;15.520;2024-03-25T09:36:27;6.21;93.51
70421;SHT31;57848;51.938;15.520;2024-03-25T09:38:53;6.28;93.48
70421;SHT31;57848;51.938;15.520;2024-03-25T09:41:19;6.33;93.67
70421;SHT31;57848;51.938;15.520;2024-03-25T09:43:48;6.31;93.21
70421;SHT31;57848;51.938;15.520;2024-03-25T09:46:15;6.37;93.13
70421;SHT31;57848;51.938;15.520;2024-03-25T09:48:42;6.28;93.01
70421;SHT31;57848;51.938;15.520;2024-03-25T09:51:09;6.24;93.09
70421;SHT31;57848;51.938;15.520;2024-03-25T09:53:34;6.31;93.51
70421;SHT31;57848;51.938;15.520;2024-03-25T09:56:00;6.45;93.02
70421;SHT31;57848;51.938;15.520;2024-03-25T09:58:26;6.46;93.34
70421;SHT31;57848;51.938;15.520;2024-03-25T10:00:52;6.54;93.16
70421;SHT31;57848;51.938;15.520;2024-03-25T10:03:18;6.71;92.24
70421;SHT31;57848;51.938;15.520;2024-03-25T10:05:44;6.85;90.91
70421;SHT31;57848;51.938;15.520;2024-03-25T10:08:09;6.91;89.38
70421;SHT31;57848;51.938;15.520;2024-03-25T10:10:35;7.19;90.24
70421;SHT31;57848;51.938;15.520;2024-03-25T10:13:05;7.40;90.02
70421;SHT31;57848;51.938;15.520;2024-03-25T10:15:32;7.61;88.70
70421;SHT31;57848;51.938;15.520;2024-03-25T10:17:58;7.60;88.47
70421;SHT31;57848;51.938;15.520;2024-03-25T10:20:23;7.44;86.89
70421;SHT31;57848;51.938;15.520;2024-03-25T10:22:49;7.33;87.22
70421;SHT31;57848;51.938;15.520;2024-03-25T10:25:22;7.06;86.62
70421;SHT31;57848;51.938;15.520;2024-03-25T10:28:01;7.75;86.05
70421;SHT31;57848;51.938;15.520;2024-03-25T10:30:28;8.57;83.80
70421;SHT31;57848;51.938;15.520;2024-03-25T10:33:05;8.87;81.34
70421;SHT31;57848;51.938;15.520;2024-03-25T10:35:34;9.16;80.30
70421;SHT31;57848;51.938;15.520;2024-03-25T10:38:18;9.98;78.97
70421;SHT31;57848;51.938;15.520;2024-03-25T10:40:45;10.17;77.93
70421;SHT31;57848;51.938;15.520;2024-03-25T10:43:11;9.83;78.99
70421;SHT31;57848;51.938;15.520;2024-03-25T10:45:43;9.45;79.47
70421;SHT31;57848;51.938;15.520;2024-03-25T10:48:19;9.15;80.90
70421;SHT31;57848;51.938;15.520;2024-03-25T10:50:46;9.43;80.90
70421;SHT31;57848;51.938;15.520;2024-03-25T10:53:12;9.42;80.67
70421;SHT31;57848;51.938;15.520;2024-03-25T10:55:39;9.18;81.28
70421;SHT31;57848;51.938;15.520;2024-03-25T10:58:06;9.21;82.32
70421;SHT31;57848;51.938;15.520;2024-03-25T11:00:36;9.46;81.15
70421;SHT31;57848;51.938;15.520;2024-03-25T11:03:02;9.28;79.93
70421;SHT31;57848;51.938;15.520;2024-03-25T11:05:28;9.00;80.57
70421;SHT31;57848;51.938;15.520;2024-03-25T11:07:53;8.84;80.67
70421;SHT31;57848;51.938;15.520;2024-03-25T11:10:29;8.87;82.64
70421;SHT31;57848;51.938;15.520;2024-03-25T11:12:54;8.85;81.95
70421;SHT31;57848;51.938;15.520;2024-03-25T11:15:20;8.64;82.83
70421;SHT31;57848;51.938;15.520;2024-03-25T11:17:50;8.75;82.82
70421;SHT31;57848;51.938;15.520;2024-03-25T11:20:16;8.70;82.75
70421;SHT31;57848;51.938;15.520;2024-03-25T11:22:49;8.73;82.86
70421;SHT31;57848;51.938;15.520;2024-03-25T11:25:15;8.50;82.47
70421;SHT31;57848;51.938;15.520;2024-03-25T11:27:43;8.36;83.17
70421;SHT31;57848;51.938;15.520;2024-03-25T11:30:15;8.36;83.43
70421;SHT31;57848;51.938;15.520;2024-03-25T11:32:52;8.35;83.40
70421;SHT31;57848;51.938;15.520;2024-03-25T11:35:18;8.36;83.50
70421;SHT31;57848;51.938;15.520;2024-03-25T11:37:44;8.59;83.80
70421;SHT31;57848;51.938;15.520;2024-03-25T11:40:10;8.63;82.13
70421;SHT31;57848;51.938;15.520;2024-03-25T11:42:38;8.52;82.19
70421;SHT31;57848;51.938;15.520;2024-03-25T11:45:05;8.59;83.07
70421;SHT31;57848;51.938;15.520;2024-03-25T11:47:31;8.44;83.53
70421;SHT31;57848;51.938;15.520;2024-03-25T11:49:56;8.46;84.35
70421;SHT31;57848;51.938;15.520;2024-03-25T11:52:22;8.25;85.40
70421;SHT31;57848;51.938;15.520;2024-03-25T11:54:54;8.33;85.53
70421;SHT31;57848;51.938;15.520;2024-03-25T11:57:20;8.36;85.01
70421;SHT31;57848;51.938;15.520;2024-03-25T11:59:46;9.07;83.63
70421;SHT31;57848;51.938;15.520;2024-03-25T12:02:15;9.42;82.45
70421;SHT31;57848;51.938;15.520;2024-03-25T12:04:45;9.82;81.74
70421;SHT31;57848;51.938;15.520;2024-03-25T12:07:14;10.61;78.76
70421;SHT31;57848;51.938;15.520;2024-03-25T12:09:39;10.38;78.14
70421;SHT31;57848;51.938;15.520;2024-03-25T12:12:25;9.98;79.30
70421;SHT31;57848;51.938;15.520;2024-03-25T12:14:50;9.59;81.57
70421;SHT31;57848;51.938;15.520;2024-03-25T12:17:16;9.38;83.04
70421;SHT31;57848;51.938;15.520;2024-03-25T12:19:44;9.25;84.22
70421;SHT31;57848;51.938;15.520;2024-03-25T12:22:10;9.11;83.86
70421;SHT31;57848;51.938;15.520;2024-03-25T12:24:35;8.81;84.26
70421;SHT31;57848;51.938;15.520;2024-03-25T12:27:01;8.50;85.21
70421;SHT31;57848;51.938;15.520;2024-03-25T12:29:28;8.52;86.32
70421;SHT31;57848;51.938;15.520;2024-03-25T12:31:56;8.01;85.22
70421;SHT31;57848;51.938;15.520;2024-03-25T12:34:22;7.75;86.71
70421;SHT31;57848;51.938;15.520;2024-03-25T12:36:50;7.74;87.62
70421;SHT31;57848;51.938;15.520;2024-03-25T12:39:16;7.91;88.16
70421;SHT31;57848;51.938;15.520;2024-03-25T12:41:42;8.19;87.74
70421;SHT31;57848;51.938;15.520;2024-03-25T12:44:07;8.61;86.86
70421;SHT31;57848;51.938;15.520;2024-03-25T12:46:33;8.56;84.73
70421;SHT31;57848;51.938;15.520;2024-03-25T12:48:58;8.53;85.49
70421;SHT31;57848;51.938;15.520;2024-03-25T12:51:24;8.71;86.21
70421;SHT31;57848;51.938;15.520;2024-03-25T12:53:50;8.63;84.85
70421;SHT31;57848;51.938;15.520;2024-03-25T12:56:16;8.68;85.13
70421;SHT31;57848;51.938;15.520;2024-03-25T12:58:41;8.75;84.13
70421;SHT31;57848;51.938;15.520;2024-03-25T13:01:06;8.78;84.17
70421;SHT31;57848;51.938;15.520;2024-03-25T13:03:32;8.84;84.22
70421;SHT31;57848;51.938;15.520;2024-03-25T13:05:57;9.15;83.44
70421;SHT31;57848;51.938;15.520;2024-03-25T13:08:24;9.28;82.12
70421;SHT31;57848;51.938;15.520;2024-03-25T13:10:50;9.45;82.51
70421;SHT31;57848;51.938;15.520;2024-03-25T13:13:15;9.52;81.88
70421;SHT31;57848;51.938;15.520;2024-03-25T13:15:41;9.45;82.14
70421;SHT31;57848;51.938;15.520;2024-03-25T13:18:06;9.12;82.66
70421;SHT31;57848;51.938;15.520;2024-03-25T13:20:32;8.80;81.60
70421;SHT31;57848;51.938;15.520;2024-03-25T13:22:58;8.83;82.72
70421;SHT31;57848;51.938;15.520;2024-03-25T13:25:25;8.83;81.52
70421;SHT31;57848;51.938;15.520;2024-03-25T13:27:52;8.88;82.84
70421;SHT31;57848;51.938;15.520;2024-03-25T13:30:17;9.34;81.27
70421;SHT31;57848;51.938;15.520;2024-03-25T13:32:43;9.73;77.03
70421;SHT31;57848;51.938;15.520;2024-03-25T13:35:08;9.53;76.22
70421;SHT31;57848;51.938;15.520;2024-03-25T13:37:33;9.25;77.77
70421;SHT31;57848;51.938;15.520;2024-03-25T13:39:58;9.43;77.86
70421;SHT31;57848;51.938;15.520;2024-03-25T13:42:24;9.39;78.39
70421;SHT31;57848;51.938;15.520;2024-03-25T13:44:49;9.50;78.16
70421;SHT31;57848;51.938;15.520;2024-03-25T13:47:14;9.82;77.76
70421;SHT31;57848;51.938;15.520;2024-03-25T13:49:40;9.77;77.41
70421;SHT31;57848;51.938;15.520;2024-03-25T13:52:05;9.76;78.11
70421;SHT31;57848;51.938;15.520;2024-03-25T13:54:30;9.52;77.89
70421;SHT31;57848;51.938;15.520;2024-03-25T13:56:56;9.57;78.55
70421;SHT31;57848;51.938;15.520;2024-03-25T13:59:22;9.45;79.01
70421;SHT31;57848;51.938;15.520;2024-03-25T14:01:47;9.42;79.32
70421;SHT31;57848;51.938;15.520;2024-03-25T14:04:12;9.16;77.28
70421;SHT31;57848;51.938;15.520;2024-03-25T14:06:39;9.00;77.74
70421;SHT31;57848;51.938;15.520;2024-03-25T14:09:04;9.24;79.42
70421;SHT31;57848;51.938;15.520;2024-03-25T14:11:30;9.42;78.55
70421;SHT31;57848;51.938;15.520;2024-03-25T14:13:55;9.64;78.50
70421;SHT31;57848;51.938;15.520;2024-03-25T14:16:21;9.72;77.99
70421;SHT31;57848;51.938;15.520;2024-03-25T14:18:46;9.80;76.46
70421;SHT31;57848;51.938;15.520;2024-03-25T14:21:11;10.05;76.31
70421;SHT31;57848;51.938;15.520;2024-03-25T14:23:37;10.32;75.54
70421;SHT31;57848;51.938;15.520;2024-03-25T14:26:02;10.46;76.57
70421;SHT31;57848;51.938;15.520;2024-03-25T14:28:27;10.38;75.46
70421;SHT31;57848;51.938;15.520;2024-03-25T14:30:53;10.10;76.01
70421;SHT31;57848;51.938;15.520;2024-03-25T14:33:18;10.20;77.16
70421;SHT31;57848;51.938;15.520;2024-03-25T14:35:43;10.27;77.12
70421;SHT31;57848;51.938;15.520;2024-03-25T14:38:09;10.13;76.54
70421;SHT31;57848;51.938;15.520;2024-03-25T14:40:40;9.98;77.14
70421;SHT31;57848;51.938;15.520;2024-03-25T14:43:05;9.76;77.29
70421;SHT31;57848;51.938;15.520;2024-03-25T14:45:30;9.64;78.45
70421;SHT31;57848;51.938;15.520;2024-03-25T14:47:56;9.39;79.22
70421;SHT31;57848;51.938;15.520;2024-03-25T14:50:21;8.97;80.83
70421;SHT31;57848;51.938;15.520;2024-03-25T14:52:46;8.85;82.40
70421;SHT31;57848;51.938;15.520;2024-03-25T14:55:12;8.68;83.35
70421;SHT31;57848;51.938;15.520;2024-03-25T14:57:37;8.63;83.56
70421;SHT31;57848;51.938;15.520;2024-03-25T15:00:03;8.59;83.28
70421;SHT31;57848;51.938;15.520;2024-03-25T15:02:30;8.42;84.11
70421;SHT31;57848;51.938;15.520;2024-03-25T15:04:55;8.32;85.46
70421;SHT31;57848;51.938;15.520;2024-03-25T15:07:20;8.07;86.75
70421;SHT31;57848;51.938;15.520;2024-03-25T15:09:46;7.53;87.08
70421;SHT31;57848;51.938;15.520;2024-03-25T15:12:11;7.42;87.63
70421;SHT31;57848;51.938;15.520;2024-03-25T15:14:37;7.17;89.35
70421;SHT31;57848;51.938;15.520;2024-03-25T15:17:02;7.06;89.12
70421;SHT31;57848;51.938;15.520;2024-03-25T15:19:28;6.89;89.97
70421;SHT31;57848;51.938;15.520;2024-03-25T15:21:53;6.93;89.75
70421;SHT31;57848;51.938;15.520;2024-03-25T15:24:18;6.88;89.39